Time;durP1;ratioP1;P1;durP2;ratioP2;P2;SDS_P1;SDS_P2;PMS_P1;PMS_P2;Temp;Humidity;BMP_temperature;BMP_pressure;BME280_temperature;BME280_humidity;BME280_pressure;Samples;Min_cycle;Max_cycle;Signal;HPM_P1;HPM_P2
2023/03/20 00:02:01;;;;;;;19.67;7.70;;;;;;;7.51;100.00;101829.56;4824080;29;20041;-90
2023/03/20 00:04:26;;;;;;;15.77;7.63;;;;;;;7.49;100.00;101832.44;4825490;29;20034;-90
2023/03/20 00:06:57;;;;;;;18.50;7.45;;;;;;;7.48;100.00;101833.47;4825393;29;20448;-90
2023/03/20 00:09:24;;;;;;;17.67;7.53;;;;;;;7.48;100.00;101829.91;4839489;29;20128;-90
2023/03/20 00:11:56;;;;;;;19.30;7.53;;;;;;;7.45;100.00;101824.88;4824080;29;20026;-90
2023/03/20 00:14:23;;;;;;;16.17;7.47;;;;;;;7.43;100.00;101822.34;4824955;29;20030;-90
2023/03/20 00:16:51;;;;;;;16.05;7.57;;;;;;;7.43;100.00;101832.31;4823920;29;20041;-90
2023/03/20 00:19:37;;;;;;;19.02;7.57;;;;;;;7.45;100.00;101830.25;4823726;29;20398;-89
2023/03/20 00:22:03;;;;;;;17.93;7.77;;;;;;;7.36;100.00;101822.16;4807940;29;20046;-90
2023/03/20 00:24:28;;;;;;;16.90;7.75;;;;;;;7.33;100.00;101829.78;4824542;29;20115;-90
2023/03/20 00:27:01;;;;;;;19.03;7.77;;;;;;;7.24;100.00;101823.53;4824600;29;20038;-92
2023/03/20 00:29:34;;;;;;;20.95;8.15;;;;;;;7.15;100.00;101814.59;4823774;29;20053;-90
2023/03/20 00:32:02;;;;;;;17.60;7.13;;;;;;;7.02;100.00;101800.75;4823650;29;20061;-89
2023/03/20 00:34:35;;;;;;;17.17;7.38;;;;;;;6.93;100.00;101794.53;4823448;29;20038;-89
2023/03/20 00:37:01;;;;;;;19.63;7.50;;;;;;;6.85;100.00;101805.31;4823444;29;20057;-89
2023/03/20 00:39:31;;;;;;;18.48;7.38;;;;;;;6.76;100.00;101799.06;4823179;29;20031;-89
2023/03/20 00:42:04;;;;;;;22.67;7.63;;;;;;;6.66;100.00;101793.81;4823582;29;20038;-89
2023/03/20 00:44:39;;;;;;;15.85;6.70;;;;;;;6.61;100.00;101800.72;4824739;29;20038;-92
2023/03/20 00:47:23;;;;;;;16.40;7.30;;;;;;;6.56;100.00;101795.81;4838330;29;20121;-90
2023/03/20 00:49:52;;;;;;;15.27;7.00;;;;;;;6.47;100.00;101784.19;4824577;29;20186;-89
2023/03/20 00:52:22;;;;;;;14.60;6.82;;;;;;;6.41;100.00;101789.41;4838241;29;20113;-89
2023/03/20 00:54:47;;;;;;;16.10;6.90;;;;;;;6.34;100.00;101793.75;4824234;29;20037;-90
2023/03/20 00:57:37;;;;;;;14.40;7.27;;;;;;;6.26;100.00;101792.72;4823914;29;20205;-90
2023/03/20 01:00:18;;;;;;;20.67;7.15;;;;;;;6.21;100.00;101805.84;4823174;29;20447;-92
2023/03/20 01:02:44;;;;;;;14.45;6.68;;;;;;;6.19;100.00;101817.81;4823419;29;20039;-90
2023/03/20 01:05:11;;;;;;;15.35;6.63;;;;;;;6.13;100.00;101830.06;4823173;29;20030;-91
2023/03/20 01:07:44;;;;;;;16.95;7.20;;;;;;;6.08;100.00;101843.16;4824462;29;20427;-90
2023/03/20 01:10:11;;;;;;;17.20;8.20;;;;;;;6.00;100.00;101843.97;4824776;29;20045;-90
2023/03/20 01:12:45;;;;;;;19.27;7.95;;;;;;;5.96;100.00;101861.44;4823027;29;20046;-90
2023/03/20 01:15:24;;;;;;;19.30;8.30;;;;;;;5.87;100.00;101849.75;4823165;29;20115;-90
2023/03/20 01:17:50;;;;;;;17.73;7.47;;;;;;;5.82;100.00;101830.56;4823078;29;20498;-90
2023/03/20 01:20:25;;;;;;;20.35;8.60;;;;;;;5.78;100.00;101829.19;4822767;29;20134;-90
2023/03/20 01:22:51;;;;;;;20.67;8.45;;;;;;;5.74;100.00;101815.22;4822927;29;20061;-90
2023/03/20 01:25:17;;;;;;;20.65;8.32;;;;;;;5.71;100.00;101812.81;4837643;29;20085;-89
2023/03/20 01:27:48;;;;;;;17.80;8.07;;;;;;;5.70;100.00;101816.53;4822865;29;20038;-89
2023/03/20 01:30:28;;;;;;;21.02;8.55;;;;;;;5.65;100.00;101815.31;4824483;29;20109;-89
2023/03/20 01:33:00;;;;;;;20.45;8.65;;;;;;;5.61;100.00;101837.16;4825551;29;20038;-90
2023/03/20 01:35:30;;;;;;;21.67;8.82;;;;;;;5.58;100.00;101833.94;4828169;29;20086;-90
2023/03/20 01:38:04;;;;;;;23.50;8.65;;;;;;;5.52;100.00;101823.81;4842082;29;20037;-90
2023/03/20 01:40:37;;;;;;;23.98;9.52;;;;;;;5.47;100.00;101818.91;4827839;29;20031;-90
2023/03/20 01:43:12;;;;;;;23.58;8.75;;;;;;;5.43;100.00;101828.28;4826410;29;20038;-89
2023/03/20 01:45:41;;;;;;;20.42;8.50;;;;;;;5.38;100.00;101823.38;4826410;29;20030;-89
2023/03/20 01:48:17;;;;;;;24.45;9.90;;;;;;;5.37;100.00;101824.38;4826172;29;20514;-90
2023/03/20 01:50:45;;;;;;;23.08;9.35;;;;;;;5.34;100.00;101821.16;4841449;29;20133;-90
2023/03/20 01:53:16;;;;;;;17.98;9.38;;;;;;;5.36;100.00;101819.16;4826044;29;20255;-90
2023/03/20 01:55:54;;;;;;;21.23;9.70;;;;;;;5.30;100.00;101811.72;4825932;29;20082;-90
2023/03/20 01:58:43;;;;;;;25.45;9.25;;;;;;;5.30;100.00;101819.78;4826187;29;20062;-90
2023/03/20 02:01:12;;;;;;;24.83;10.25;;;;;;;5.24;100.00;101819.41;4825927;29;20041;-91
2023/03/20 02:03:41;;;;;;;22.25;8.88;;;;;;;5.20;100.00;101819.88;4826147;29;20041;-90
2023/03/20 02:06:15;;;;;;;20.95;9.43;;;;;;;5.22;100.00;101824.09;4840638;29;20038;-90
2023/03/20 02:08:51;;;;;;;23.88;9.98;;;;;;;5.18;100.00;101811.13;4826077;29;20039;-90
2023/03/20 02:11:21;;;;;;;25.10;9.48;;;;;;;5.19;100.00;101823.56;4841236;29;20030;-90
2023/03/20 02:13:56;;;;;;;22.65;10.05;;;;;;;5.18;100.00;101846.94;4841489;29;20073;-89
2023/03/20 02:16:21;;;;;;;25.10;10.23;;;;;;;5.17;100.00;101836.34;4827222;29;20030;-90
2023/03/20 02:18:57;;;;;;;26.70;10.98;;;;;;;5.20;100.00;101839.56;4826934;29;20026;-90
2023/03/20 02:22:10;;;;;;;22.33;10.00;;;;;;;5.17;100.00;101839.03;4827036;29;20033;-89
2023/03/20 02:24:57;;;;;;;24.52;10.15;;;;;;;5.16;100.00;101850.78;4826795;29;20030;-91
2023/03/20 02:28:14;;;;;;;31.35;11.10;;;;;;;5.13;100.00;101848.41;4827787;29;20041;-90
2023/03/20 02:31:12;;;;;;;29.52;10.65;;;;;;;5.11;100.00;101853.94;4807840;29;20133;-90
2023/03/20 02:34:08;;;;;;;30.75;10.82;;;;;;;5.12;100.00;101852.09;4814745;29;20178;-90
2023/03/20 02:36:57;;;;;;;24.27;11.20;;;;;;;5.10;100.00;101847.69;4842767;29;20099;-90
2023/03/20 02:39:35;;;;;;;26.00;10.93;;;;;;;5.09;100.00;101827.22;4826002;29;20034;-90
2023/03/20 02:42:15;;;;;;;27.55;10.80;;;;;;;5.04;100.00;101825.97;4840502;29;20058;-89
2023/03/20 02:45:12;;;;;;;24.83;10.43;;;;;;;5.04;100.00;101821.44;4824325;29;20027;-90
2023/03/20 02:47:58;;;;;;;27.88;10.70;;;;;;;5.04;100.00;101820.59;4826286;29;20038;-89
2023/03/20 02:50:43;;;;;;;25.83;10.97;;;;;;;5.01;100.00;101816.38;4826787;29;20042;-90
2023/03/20 02:53:55;;;;;;;29.75;11.05;;;;;;;5.01;100.00;101807.47;4825317;29;20042;-90
2023/03/20 02:56:31;;;;;;;29.45;11.52;;;;;;;4.99;100.00;101814.81;4825417;29;20379;-90
2023/03/20 02:59:21;;;;;;;28.73;11.20;;;;;;;4.98;100.00;101818.53;4824618;29;20073;-89
2023/03/20 03:01:55;;;;;;;26.00;11.07;;;;;;;4.91;100.00;101811.06;4826500;29;20073;-90
2023/03/20 03:04:28;;;;;;;29.90;11.23;;;;;;;4.89;100.00;101806.84;4826298;29;20038;-90
2023/03/20 03:06:58;;;;;;;28.38;11.77;;;;;;;4.87;100.00;101803.44;4840311;29;20084;-90
2023/03/20 03:09:33;;;;;;;29.65;11.45;;;;;;;4.84;100.00;101809.13;4826083;29;20050;-90
2023/03/20 03:12:08;;;;;;;35.67;11.90;;;;;;;4.87;100.00;101814.22;4826261;29;20090;-89
2023/03/20 03:14:34;;;;;;;29.60;11.32;;;;;;;4.88;100.00;101795.22;4825085;29;20038;-90
2023/03/20 03:17:04;;;;;;;29.33;11.37;;;;;;;4.89;100.00;101788.88;4840317;29;20038;-90
2023/03/20 03:19:44;;;;;;;27.48;11.82;;;;;;;4.92;100.00;101785.03;4825884;29;20410;-90
2023/03/20 03:22:14;;;;;;;28.55;11.90;;;;;;;4.91;100.00;101777.94;4824494;29;20035;-90
2023/03/20 03:24:50;;;;;;;24.20;10.10;;;;;;;4.95;100.00;101786.56;4825538;29;20034;-89
2023/03/20 03:27:34;;;;;;;29.17;12.25;;;;;;;4.92;100.00;101760.81;4824473;29;20050;-90
2023/03/20 03:30:05;;;;;;;27.20;11.13;;;;;;;4.93;100.00;101767.88;4839658;29;20555;-89
2023/03/20 03:32:38;;;;;;;26.55;11.38;;;;;;;4.94;100.00;101768.72;4824355;29;20034;-90
2023/03/20 03:35:05;;;;;;;24.25;10.40;;;;;;;4.97;100.00;101785.38;4825655;29;20038;-90
2023/03/20 03:37:41;;;;;;;24.77;10.20;;;;;;;5.00;100.00;101776.16;4825520;29;20042;-90
2023/03/20 03:40:27;;;;;;;30.70;11.68;;;;;;;5.00;100.00;101779.69;4839548;29;20034;-91
2023/03/20 03:43:29;;;;;;;27.95;10.02;;;;;;;4.95;100.00;101771.25;4839398;29;20043;-89
2023/03/20 03:46:13;;;;;;;;;;;;;;;;;;;;;
2023/03/20 03:48:44;;;;;;;26.70;10.90;;;;;;;4.91;100.00;101770.72;4825860;29;20032;-89
2023/03/20 03:51:20;;;;;;;24.90;11.10;;;;;;;4.88;100.00;101759.44;4825437;29;20046;-89
2023/03/20 03:54:14;;;;;;;24.50;10.30;;;;;;;4.88;100.00;101759.44;4823942;29;20030;-89
2023/03/20 03:56:46;;;;;;;27.75;11.07;;;;;;;4.84;100.00;101753.53;4824733;29;20038;-89
2023/03/20 03:59:29;;;;;;;26.17;11.02;;;;;;;4.84;100.00;101760.75;4825360;29;20119;-91
2023/03/20 04:02:00;;;;;;;28.27;10.50;;;;;;;4.87;100.00;101768.50;4824361;29;20057;-89
2023/03/20 04:04:30;;;;;;;27.00;11.03;;;;;;;4.84;100.00;101769.66;4825210;29;20026;-89
2023/03/20 04:07:16;;;;;;;25.70;10.95;;;;;;;4.81;100.00;101755.69;4839190;29;20129;-89
2023/03/20 04:09:42;;;;;;;23.45;10.95;;;;;;;4.81;100.00;101756.50;4825046;29;20109;-89
2023/03/20 04:12:29;;;;;;;26.10;11.13;;;;;;;4.84;100.00;101763.44;4824066;29;20130;-89
2023/03/20 04:14:55;;;;;;;23.77;9.48;;;;;;;4.85;100.00;101751.69;4838892;29;20030;-89
2023/03/20 04:17:23;;;;;;;25.27;10.00;;;;;;;4.80;100.00;101749.47;4825150;29;20037;-89
2023/03/20 04:19:51;;;;;;;24.50;10.43;;;;;;;4.78;100.00;101756.81;4839128;29;20118;-90
2023/03/20 04:22:16;;;;;;;27.38;10.85;;;;;;;4.79;100.00;101750.47;4838636;29;20127;-89
2023/03/20 04:24:42;;;;;;;27.20;10.77;;;;;;;4.80;100.00;101744.09;4824555;29;20117;-89
2023/03/20 04:27:07;;;;;;;24.10;9.82;;;;;;;4.80;100.00;101757.53;4824002;29;20764;-89
2023/03/20 04:29:36;;;;;;;23.03;10.03;;;;;;;4.79;100.00;101750.47;4823519;29;20505;-90
2023/03/20 04:32:04;;;;;;;21.85;9.68;;;;;;;4.78;100.00;101753.31;4808469;29;20061;-90
2023/03/20 04:34:33;;;;;;;22.65;9.77;;;;;;;4.79;100.00;101755.84;4824793;29;20049;-90
2023/03/20 04:37:00;;;;;;;25.67;10.82;;;;;;;4.76;100.00;101747.25;4823467;29;20519;-90
2023/03/20 04:39:28;;;;;;;23.90;10.00;;;;;;;4.77;100.00;101747.09;4824443;29;20030;-90
2023/03/20 04:41:57;;;;;;;24.05;10.38;;;;;;;4.72;100.00;101744.88;4823741;29;20137;-89
2023/03/20 04:44:22;;;;;;;23.95;10.05;;;;;;;4.71;100.00;101747.69;4824847;29;20038;-89
2023/03/20 04:46:50;;;;;;;27.80;10.20;;;;;;;4.70;100.00;101752.22;4838734;29;20033;-89
2023/03/20 04:49:21;;;;;;;25.67;10.02;;;;;;;4.68;100.00;101742.63;4838978;29;20042;-90
2023/03/20 04:51:46;;;;;;;21.42;9.70;;;;;;;4.71;100.00;101739.63;4838191;29;20103;-90
2023/03/20 04:54:15;;;;;;;23.43;9.53;;;;;;;4.70;100.00;101725.34;4823305;29;20042;-90
2023/03/20 04:56:50;;;;;;;23.15;9.90;;;;;;;4.68;100.00;101724.66;4823445;29;20057;-89
2023/03/20 04:59:18;;;;;;;24.67;10.38;;;;;;;4.69;100.00;101729.03;4823004;29;20168;-90
2023/03/20 05:01:44;;;;;;;25.13;9.40;;;;;;;4.73;100.00;101735.78;4838383;29;20083;-89
2023/03/20 05:04:12;;;;;;;22.10;9.07;;;;;;;4.72;100.00;101736.81;4823617;29;20042;-89
2023/03/20 05:06:37;;;;;;;27.45;9.77;;;;;;;4.73;100.00;101732.25;4822767;29;20121;-88
2023/03/20 05:09:06;;;;;;;23.13;9.30;;;;;;;4.76;100.00;101740.00;4823302;29;20077;-90
2023/03/20 05:11:31;;;;;;;24.40;9.40;;;;;;;4.78;100.00;101738.00;4823398;29;20042;-89
2023/03/20 05:13:57;;;;;;;23.93;9.70;;;;;;;4.79;100.00;101730.81;4824776;29;20455;-89
2023/03/20 05:16:25;;;;;;;21.10;9.57;;;;;;;4.80;100.00;101724.41;4823271;29;20038;-90
2023/03/20 05:18:50;;;;;;;22.05;9.77;;;;;;;4.83;100.00;101732.19;4838540;29;20046;-89
2023/03/20 05:21:19;;;;;;;20.38;8.70;;;;;;;4.87;100.00;101720.09;4824444;29;20039;-90
2023/03/20 05:23:44;;;;;;;24.00;10.00;;;;;;;4.89;100.00;101729.69;4823270;29;20050;-90
2023/03/20 05:26:13;;;;;;;22.85;8.65;;;;;;;4.92;100.00;101731.25;4838495;29;20106;-89
2023/03/20 05:28:41;;;;;;;21.02;8.35;;;;;;;4.88;100.00;101719.94;4838269;29;20064;-89
2023/03/20 05:31:09;;;;;;;24.85;9.23;;;;;;;4.98;100.00;101727.09;4824343;29;20069;-90
2023/03/20 05:33:34;;;;;;;18.80;8.82;;;;;;;4.97;100.00;101730.75;4823047;29;20540;-90
2023/03/20 05:36:00;;;;;;;24.95;10.23;;;;;;;4.94;100.00;101726.53;4838407;29;20114;-90
2023/03/20 05:38:33;;;;;;;18.73;8.97;;;;;;;4.98;100.00;101725.22;4824110;29;20034;-89
2023/03/20 05:40:59;;;;;;;22.30;8.90;;;;;;;4.96;100.00;101721.00;4838133;29;20034;-90
2023/03/20 05:43:27;;;;;;;23.65;9.18;;;;;;;4.98;100.00;101719.84;4822858;29;20038;-89
2023/03/20 05:45:55;;;;;;;21.97;9.00;;;;;;;4.99;100.00;101728.75;4823063;29;20041;-89
2023/03/20 05:48:23;;;;;;;19.52;8.20;;;;;;;4.99;100.00;101721.53;4824338;29;20037;-89
2023/03/20 05:50:48;;;;;;;28.65;9.32;;;;;;;5.02;100.00;101729.28;4823910;29;20525;-89
2023/03/20 05:53:14;;;;;;;23.30;9.03;;;;;;;5.07;100.00;101735.03;4823031;29;20061;-89
2023/03/20 05:55:43;;;;;;;25.35;8.55;;;;;;;5.06;100.00;101736.06;4822123;29;20031;-89
2023/03/20 05:58:09;;;;;;;25.75;8.82;;;;;;;5.07;100.00;101735.03;4823830;29;20524;-90
2023/03/20 06:00:37;;;;;;;22.60;8.00;;;;;;;5.14;100.00;101753.22;4822350;29;20058;-90
2023/03/20 06:03:05;;;;;;;20.53;7.83;;;;;;;5.18;100.00;101750.09;4822447;29;20127;-89
2023/03/20 06:05:32;;;;;;;18.83;8.25;;;;;;;5.19;100.00;101756.31;4823666;29;20493;-89
2023/03/20 06:07:57;;;;;;;21.38;8.65;;;;;;;5.20;100.00;101758.84;4823819;29;20031;-91
2023/03/20 06:10:23;;;;;;;17.55;7.78;;;;;;;5.23;100.00;101760.38;4822460;29;20598;-89
2023/03/20 06:12:51;;;;;;;20.77;8.20;;;;;;;5.25;100.00;101752.97;4822181;29;20553;-90
2023/03/20 06:15:19;;;;;;;17.60;7.75;;;;;;;5.30;100.00;101756.06;4823643;29;20394;-90
2023/03/20 06:17:44;;;;;;;22.80;8.18;;;;;;;5.30;100.00;101755.19;4822945;29;20062;-90
2023/03/20 06:20:11;;;;;;;19.63;6.83;;;;;;;5.35;100.00;101760.97;4825773;29;20423;-89
2023/03/20 06:22:36;;;;;;;17.88;7.00;;;;;;;5.38;100.00;101760.66;4826646;29;20086;-89
2023/03/20 06:25:02;;;;;;;23.10;8.37;;;;;;;5.40;100.00;101762.19;4825172;29;20129;-87
2023/03/20 06:27:32;;;;;;;24.13;7.90;;;;;;;5.42;100.00;101756.63;4826899;29;20030;-90
2023/03/20 06:30:05;;;;;;;16.25;6.63;;;;;;;5.50;100.00;101764.75;4825214;29;20034;-90
2023/03/20 06:32:34;;;;;;;20.77;6.82;;;;;;;5.48;100.00;101769.44;4825380;29;20079;-90
2023/03/20 06:35:11;;;;;;;21.08;6.85;;;;;;;5.49;100.00;101763.03;4826512;29;20030;-90
2023/03/20 06:37:44;;;;;;;16.77;7.65;;;;;;;5.55;100.00;101769.63;4826609;29;20053;-90
2023/03/20 06:40:21;;;;;;;22.23;7.95;;;;;;;5.56;100.00;101768.66;4824923;29;20041;-89
2023/03/20 06:43:03;;;;;;;;;;;;;;;;;;;;;
2023/03/20 06:45:47;;;;;;;18.13;7.00;;;;;;;5.65;100.00;101777.63;4840064;29;20034;-90
2023/03/20 06:48:20;;;;;;;14.75;6.93;;;;;;;5.71;100.00;101788.56;4841974;29;20045;-92
2023/03/20 06:53:38;;;;;;;20.05;7.05;;;;;;;5.78;100.00;101797.69;4825974;29;20075;-87
2023/03/20 06:56:06;;;;;;;22.05;7.68;;;;;;;5.83;100.00;101801.78;4826514;29;20042;-88
2023/03/20 06:58:43;;;;;;;17.20;6.90;;;;;;;5.84;100.00;101804.31;4825977;29;20034;-88
2023/03/20 07:01:13;;;;;;;19.33;6.55;;;;;;;5.86;100.00;101805.00;4824420;29;20061;-87
2023/03/20 07:03:40;;;;;;;16.83;6.90;;;;;;;5.85;100.00;101800.63;4840192;29;20188;-87
2023/03/20 07:06:06;;;;;;;18.02;7.50;;;;;;;5.85;100.00;101806.00;4839794;29;20030;-87
2023/03/20 07:08:41;;;;;;;24.92;7.57;;;;;;;5.88;100.00;101804.84;4824752;29;20034;-88
2023/03/20 07:11:08;;;;;;;22.13;6.82;;;;;;;5.90;100.00;101808.22;4824793;29;20031;-87
2023/03/20 07:13:46;;;;;;;23.85;7.68;;;;;;;5.92;100.00;101812.44;4823878;29;20052;-92
2023/03/20 07:16:21;;;;;;;19.20;6.90;;;;;;;6.00;100.00;101808.13;4817118;29;20106;-90
2023/03/20 07:18:58;;;;;;;;;;;;;;;;;;;;;
2023/03/20 07:21:41;;;;;;;22.95;7.32;;;;;;;6.20;100.00;101812.25;4825640;29;20034;-90
2023/03/20 07:24:20;;;;;;;;;;;;;;;;;;;;;
2023/03/20 07:26:45;;;;;;;23.13;6.65;;;;;;;6.29;100.00;101813.97;4841953;29;20034;-92
2023/03/20 07:29:13;;;;;;;17.47;7.20;;;;;;;6.29;100.00;101818.53;4826167;29;20084;-89
2023/03/20 07:34:48;;;;;;;17.77;6.70;;;;;;;6.44;100.00;101813.34;5157222;23;20091;-89
2023/03/20 07:37:29;;;;;;;19.17;6.67;;;;;;;6.51;100.00;101822.47;4809602;29;20026;-89
2023/03/20 07:50:14;;;;;;;21.73;6.93;;;;;;;6.65;100.00;101829.06;4840888;29;20073;-89
2023/03/20 07:52:44;;;;;;;19.05;6.43;;;;;;;6.59;100.00;101819.75;4842778;29;20045;-89
2023/03/20 07:55:14;;;;;;;17.10;6.03;;;;;;;6.64;100.00;101819.25;4843763;29;20039;-89
2023/03/20 07:57:39;;;;;;;21.50;6.63;;;;;;;6.63;100.00;101821.13;4842661;29;20060;-90
2023/03/20 08:00:09;;;;;;;14.97;6.07;;;;;;;6.68;100.00;101813.38;4842409;29;20486;-90
2023/03/20 08:02:40;;;;;;;15.32;6.45;;;;;;;6.71;100.00;101816.75;4828025;29;20086;-91
2023/03/20 08:05:11;;;;;;;18.80;6.45;;;;;;;6.77;100.00;101826.88;4842775;29;20125;-92
2023/03/20 08:07:37;;;;;;;19.77;6.50;;;;;;;6.76;100.00;101819.78;4841997;29;20063;-88
2023/03/20 08:10:14;;;;;;;19.08;6.35;;;;;;;6.78;100.00;101825.88;4843333;29;20490;-87
2023/03/20 08:12:45;;;;;;;20.30;6.15;;;;;;;6.75;100.00;101824.34;4842099;29;20038;-88
2023/03/20 08:15:10;;;;;;;20.58;6.22;;;;;;;6.78;100.00;101818.63;4843149;29;20037;-90
2023/03/20 08:17:36;;;;;;;21.15;5.85;;;;;;;6.79;100.00;101820.31;4841576;29;20402;-88
2023/03/20 08:25:32;;;;;;;16.52;5.97;;;;;;;6.91;100.00;101822.66;4823861;29;20130;-87
